Time;durP1;ratioP1;P1;durP2;ratioP2;P2;SDS_P1;SDS_P2;PMS_P1;PMS_P2;Temp;Humidity;BMP_temperature;BMP_pressure;BME280_temperature;BME280_humidity;BME280_pressure;Samples;Min_cycle;Max_cycle;Signal;HPM_P1;HPM_P2
2022/08/31 00:04:31;;;;;;;2.00;0.80;;;;;;;;;;5094037;28;20901;-69
2022/08/31 00:06:58;;;;;;;2.43;1.57;;;;;;;;;;5094895;28;21040;-70
2022/08/31 00:09:25;;;;;;;3.83;1.20;;;;;;;;;;5095750;28;20872;-69
2022/08/31 00:11:54;;;;;;;4.33;1.00;;;;;;;;;;5078758;28;20490;-69
2022/08/31 00:14:21;;;;;;;3.60;1.10;;;;;;;;;;5074045;28;20980;-69
2022/08/31 00:16:48;;;;;;;2.00;0.80;;;;;;;;;;5073359;28;20543;-69
2022/08/31 00:19:17;;;;;;;3.50;1.10;;;;;;;;;;5072733;28;20551;-69
2022/08/31 00:21:44;;;;;;;3.50;1.20;;;;;;;;;;5072737;28;20881;-69
2022/08/31 00:24:13;;;;;;;3.43;1.00;;;;;;;;;;5071790;28;20512;-69
2022/08/31 00:26:40;;;;;;;3.17;1.50;;;;;;;;;;5073658;28;20452;-70
2022/08/31 00:29:09;;;;;;;2.63;1.40;;;;;;;;;;5073405;28;20460;-69
2022/08/31 00:31:36;;;;;;;3.73;2.10;;;;;;;;;;5072831;28;20856;-70
2022/08/31 00:34:03;;;;;;;4.17;2.60;;;;;;;;;;5073266;28;20444;-69
2022/08/31 00:36:30;;;;;;;3.53;1.77;;;;;;;;;;5073527;28;20488;-69
2022/08/31 00:38:57;;;;;;;2.97;1.77;;;;;;;;;;5072335;28;20460;-70
2022/08/31 00:41:25;;;;;;;3.03;1.43;;;;;;;;;;5071641;28;20606;-70
2022/08/31 00:43:54;;;;;;;1.80;0.87;;;;;;;;;;5071939;28;20452;-69
2022/08/31 00:46:25;;;;;;;2.67;1.10;;;;;;;;;;5072621;28;20521;-69
2022/08/31 00:48:56;;;;;;;3.80;2.00;;;;;;;;;;5073183;28;20518;-69
2022/08/31 00:51:23;;;;;;;4.37;1.30;;;;;;;;;;5072705;28;20506;-69
2022/08/31 00:53:50;;;;;;;5.37;2.63;;;;;;;;;;5073018;28;20723;-69
2022/08/31 00:56:18;;;;;;;4.57;1.93;;;;;;;;;;5072591;28;20766;-69
2022/08/31 00:58:46;;;;;;;4.60;1.80;;;;;;;;;;5071593;28;20467;-69
2022/08/31 01:01:13;;;;;;;4.70;1.20;;;;;;;;;;5085804;28;20634;-69
2022/08/31 01:03:41;;;;;;;4.57;1.30;;;;;;;;;;5092400;28;20464;-69
2022/08/31 01:06:09;;;;;;;2.53;1.47;;;;;;;;;;5093283;28;20782;-70
2022/08/31 01:08:36;;;;;;;3.40;1.90;;;;;;;;;;5092764;28;20487;-70
2022/08/31 01:11:07;;;;;;;2.77;0.97;;;;;;;;;;5093054;28;20554;-71
2022/08/31 01:13:34;;;;;;;3.83;1.03;;;;;;;;;;5075237;28;20473;-71
2022/08/31 01:16:03;;;;;;;2.70;1.20;;;;;;;;;;5072009;28;20513;-70
2022/08/31 01:18:33;;;;;;;2.17;1.00;;;;;;;;;;5072196;28;20461;-71
2022/08/31 01:21:08;;;;;;;3.10;0.90;;;;;;;;;;5072402;28;20536;-70
2022/08/31 01:23:38;;;;;;;2.57;1.10;;;;;;;;;;5072684;28;20759;-71
2022/08/31 01:26:07;;;;;;;3.63;1.20;;;;;;;;;;5073318;28;20465;-70
2022/08/31 01:28:34;;;;;;;3.50;1.27;;;;;;;;;;5091855;28;20491;-71
2022/08/31 01:31:04;;;;;;;3.40;1.20;;;;;;;;;;5092821;28;20459;-70
2022/08/31 01:33:32;;;;;;;2.00;0.87;;;;;;;;;;5092844;28;20483;-71
2022/08/31 01:35:59;;;;;;;1.83;0.90;;;;;;;;;;5092460;28;20521;-71
2022/08/31 01:38:27;;;;;;;2.37;0.80;;;;;;;;;;5092962;28;20463;-71
2022/08/31 01:40:56;;;;;;;1.80;0.80;;;;;;;;;;5090324;28;20447;-71
2022/08/31 01:43:23;;;;;;;2.23;0.90;;;;;;;;;;5082382;28;20681;-70
2022/08/31 01:45:50;;;;;;;2.87;0.73;;;;;;;;;;5076559;28;20486;-70
2022/08/31 01:48:18;;;;;;;2.83;0.73;;;;;;;;;;5075231;28;20496;-70
2022/08/31 01:50:45;;;;;;;3.40;0.70;;;;;;;;;;5075046;28;20460;-71
2022/08/31 01:53:12;;;;;;;2.00;1.03;;;;;;;;;;5076136;28;21107;-70
2022/08/31 01:55:45;;;;;;;4.90;0.80;;;;;;;;;;5087827;28;20562;-71
2022/08/31 01:58:14;;;;;;;3.13;0.87;;;;;;;;;;5096399;28;21189;-69
2022/08/31 02:00:41;;;;;;;1.93;0.73;;;;;;;;;;5097356;28;20463;-70
2022/08/31 02:03:08;;;;;;;1.93;0.90;;;;;;;;;;5095063;28;20510;-71
2022/08/31 02:05:35;;;;;;;1.50;0.70;;;;;;;;;;5096134;28;20885;-70
2022/08/31 02:08:03;;;;;;;2.60;1.33;;;;;;;;;;5096569;28;20487;-70
2022/08/31 02:10:30;;;;;;;2.07;0.90;;;;;;;;;;5097327;28;20856;-70
2022/08/31 02:12:57;;;;;;;1.77;0.77;;;;;;;;;;5096705;28;20541;-70
2022/08/31 02:15:25;;;;;;;1.40;0.70;;;;;;;;;;5096561;28;20447;-70
2022/08/31 02:17:52;;;;;;;1.90;0.80;;;;;;;;;;5087258;28;21093;-70
2022/08/31 02:20:20;;;;;;;2.67;1.03;;;;;;;;;;5077398;28;20459;-70
2022/08/31 02:22:47;;;;;;;3.40;0.80;;;;;;;;;;5086158;28;20462;-70
2022/08/31 02:25:15;;;;;;;2.97;0.70;;;;;;;;;;5095635;28;20471;-70
2022/08/31 02:27:43;;;;;;;2.93;0.90;;;;;;;;;;5095420;28;20487;-69
2022/08/31 02:30:12;;;;;;;1.50;0.60;;;;;;;;;;5096736;28;20443;-70
2022/08/31 02:32:39;;;;;;;1.80;0.90;;;;;;;;;;5095805;28;20532;-70
2022/08/31 02:35:07;;;;;;;1.73;0.80;;;;;;;;;;5096792;28;20813;-69
2022/08/31 02:37:34;;;;;;;2.27;0.90;;;;;;;;;;5096235;28;20474;-70
2022/08/31 02:40:02;;;;;;;7.13;0.80;;;;;;;;;;5096177;28;20471;-70
2022/08/31 02:42:29;;;;;;;2.17;0.70;;;;;;;;;;5096143;28;20501;-71
2022/08/31 02:44:56;;;;;;;2.43;1.03;;;;;;;;;;5096669;28;20448;-70
2022/08/31 02:47:23;;;;;;;3.07;0.90;;;;;;;;;;5096032;28;20494;-71
2022/08/31 02:49:51;;;;;;;4.23;0.90;;;;;;;;;;5096573;28;20451;-71
2022/08/31 02:52:18;;;;;;;2.97;0.73;;;;;;;;;;5095444;28;20491;-70
2022/08/31 02:54:45;;;;;;;2.50;1.00;;;;;;;;;;5094675;28;20456;-70
2022/08/31 02:57:12;;;;;;;3.77;1.00;;;;;;;;;;5095474;28;20843;-70
2022/08/31 02:59:39;;;;;;;6.03;1.23;;;;;;;;;;5095836;28;20448;-70
2022/08/31 03:02:06;;;;;;;2.50;1.20;;;;;;;;;;5094435;28;20503;-70
2022/08/31 03:04:33;;;;;;;1.47;0.70;;;;;;;;;;5095083;28;20449;-70
2022/08/31 03:07:01;;;;;;;2.13;0.90;;;;;;;;;;5095282;28;20486;-71
2022/08/31 03:09:28;;;;;;;1.90;0.90;;;;;;;;;;5096285;28;20495;-70
2022/08/31 03:11:55;;;;;;;7.30;1.57;;;;;;;;;;5094907;28;20448;-70
2022/08/31 03:14:22;;;;;;;1.70;0.93;;;;;;;;;;5096352;28;20459;-70
2022/08/31 03:16:49;;;;;;;1.70;0.87;;;;;;;;;;5094403;28;20508;-70
2022/08/31 03:19:18;;;;;;;2.57;1.50;;;;;;;;;;5092311;28;20540;-70
2022/08/31 03:21:45;;;;;;;1.63;0.93;;;;;;;;;;5095069;28;20738;-69
2022/08/31 03:24:16;;;;;;;1.60;0.80;;;;;;;;;;5095700;28;20462;-69
2022/08/31 03:26:44;;;;;;;2.23;0.90;;;;;;;;;;5094974;28;20866;-71
2022/08/31 03:29:11;;;;;;;2.07;1.40;;;;;;;;;;5094279;28;20538;-71
2022/08/31 03:31:38;;;;;;;1.80;0.87;;;;;;;;;;5095728;28;20905;-71
2022/08/31 03:34:06;;;;;;;2.17;0.90;;;;;;;;;;5093613;28;20562;-71
2022/08/31 03:36:38;;;;;;;3.00;1.20;;;;;;;;;;5075534;28;20873;-71
2022/08/31 03:39:05;;;;;;;5.43;1.20;;;;;;;;;;5074606;28;20465;-70
2022/08/31 03:41:34;;;;;;;2.23;1.00;;;;;;;;;;5094264;28;20456;-70
2022/08/31 03:44:01;;;;;;;3.60;1.07;;;;;;;;;;5094870;28;20540;-70
2022/08/31 03:46:29;;;;;;;3.00;1.23;;;;;;;;;;5093483;28;20470;-70
2022/08/31 03:48:56;;;;;;;2.73;1.00;;;;;;;;;;5095847;28;20492;-70
2022/08/31 03:51:23;;;;;;;2.90;1.07;;;;;;;;;;5094673;28;20474;-70
2022/08/31 03:53:51;;;;;;;1.60;0.80;;;;;;;;;;5091988;28;21016;-70
2022/08/31 03:56:18;;;;;;;2.30;1.20;;;;;;;;;;5075692;28;20451;-70
2022/08/31 03:58:47;;;;;;;1.50;0.63;;;;;;;;;;5073948;28;20457;-70
2022/08/31 04:01:14;;;;;;;3.23;1.20;;;;;;;;;;5094380;28;20459;-70
2022/08/31 04:03:41;;;;;;;3.10;0.93;;;;;;;;;;5094553;28;20498;-70
2022/08/31 04:06:09;;;;;;;2.03;0.97;;;;;;;;;;5093128;28;20487;-70
2022/08/31 04:08:36;;;;;;;2.00;1.00;;;;;;;;;;5094248;28;20502;-70
2022/08/31 04:11:07;;;;;;;4.90;1.37;;;;;;;;;;5092828;28;20491;-70
2022/08/31 04:13:34;;;;;;;3.10;1.20;;;;;;;;;;5094185;28;20460;-70
2022/08/31 04:16:02;;;;;;;2.53;1.23;;;;;;;;;;5093574;28;20451;-70
2022/08/31 04:18:29;;;;;;;2.37;1.47;;;;;;;;;;5093348;28;20476;-70
2022/08/31 04:20:56;;;;;;;3.50;1.37;;;;;;;;;;5086609;28;20455;-70
2022/08/31 04:23:28;;;;;;;2.60;1.03;;;;;;;;;;5078418;28;20567;-71
2022/08/31 04:25:56;;;;;;;1.93;0.93;;;;;;;;;;5078915;28;20448;-69
2022/08/31 04:28:23;;;;;;;2.20;1.27;;;;;;;;;;5074750;28;20515;-70
2022/08/31 04:30:50;;;;;;;1.30;0.70;;;;;;;;;;5093484;28;21030;-69
2022/08/31 04:33:18;;;;;;;3.30;0.93;;;;;;;;;;5092785;28;20470;-70
2022/08/31 04:35:46;;;;;;;5.10;1.20;;;;;;;;;;5093044;28;20560;-69
2022/08/31 04:38:13;;;;;;;1.70;0.80;;;;;;;;;;5092458;28;20456;-70
2022/08/31 04:40:40;;;;;;;2.27;1.10;;;;;;;;;;5093249;28;20597;-70
2022/08/31 04:43:08;;;;;;;2.60;1.10;;;;;;;;;;5092135;28;20573;-70
2022/08/31 04:45:40;;;;;;;2.40;1.00;;;;;;;;;;5093992;28;20572;-70
2022/08/31 04:48:07;;;;;;;3.50;1.10;;;;;;;;;;5091273;28;20479;-70
2022/08/31 04:50:35;;;;;;;2.37;1.10;;;;;;;;;;5093498;28;20443;-69
2022/08/31 04:53:02;;;;;;;3.20;1.10;;;;;;;;;;5092267;28;20762;-70
2022/08/31 04:55:29;;;;;;;2.03;1.40;;;;;;;;;;5092634;28;20490;-70
2022/08/31 04:57:56;;;;;;;3.90;1.57;;;;;;;;;;5091136;28;20956;-70
2022/08/31 05:00:23;;;;;;;7.00;2.00;;;;;;;;;;5093038;28;20460;-70
2022/08/31 05:02:53;;;;;;;6.20;2.07;;;;;;;;;;5090890;28;20459;-70
2022/08/31 05:05:20;;;;;;;2.50;1.20;;;;;;;;;;5092301;28;20443;-71
2022/08/31 05:07:50;;;;;;;7.80;2.27;;;;;;;;;;5090023;28;20921;-70
2022/08/31 05:10:18;;;;;;;5.03;1.70;;;;;;;;;;5091842;28;20956;-70
2022/08/31 05:12:45;;;;;;;3.70;1.43;;;;;;;;;;5091712;28;20456;-70
2022/08/31 05:15:12;;;;;;;3.30;1.13;;;;;;;;;;5090734;28;20510;-70
2022/08/31 05:17:39;;;;;;;3.33;1.33;;;;;;;;;;5093643;28;20905;-70
2022/08/31 05:20:07;;;;;;;6.60;2.00;;;;;;;;;;5094762;27;20508;-70
2022/08/31 05:22:34;;;;;;;2.10;1.23;;;;;;;;;;5092784;27;20905;-70
2022/08/31 05:25:05;;;;;;;4.80;1.13;;;;;;;;;;5089677;27;20475;-70
2022/08/31 05:27:33;;;;;;;4.63;1.40;;;;;;;;;;5095618;28;20526;-71
2022/08/31 05:30:01;;;;;;;1.77;0.90;;;;;;;;;;5095906;28;20737;-71
2022/08/31 05:32:28;;;;;;;1.83;1.40;;;;;;;;;;5097441;28;20459;-70
2022/08/31 05:34:59;;;;;;;5.67;1.70;;;;;;;;;;5095991;27;20531;-70
2022/08/31 05:37:28;;;;;;;4.67;1.47;;;;;;;;;;5096536;28;21015;-71
2022/08/31 05:39:55;;;;;;;2.40;1.53;;;;;;;;;;5095275;27;20554;-70
2022/08/31 05:42:23;;;;;;;2.93;1.43;;;;;;;;;;5095982;28;20483;-70
2022/08/31 05:44:50;;;;;;;3.53;1.33;;;;;;;;;;5097332;28;20463;-71
2022/08/31 05:47:17;;;;;;;4.80;2.07;;;;;;;;;;5095862;28;20479;-69
2022/08/31 05:49:45;;;;;;;4.00;1.73;;;;;;;;;;5096684;28;20542;-69
2022/08/31 05:52:12;;;;;;;2.90;1.10;;;;;;;;;;5096877;28;20448;-69
2022/08/31 05:54:40;;;;;;;2.30;1.23;;;;;;;;;;5095620;27;20447;-72
2022/08/31 05:57:07;;;;;;;4.90;1.67;;;;;;;;;;5095514;27;20444;-71
2022/08/31 05:59:35;;;;;;;6.50;1.90;;;;;;;;;;5095231;28;20518;-71
2022/08/31 06:02:03;;;;;;;3.40;1.20;;;;;;;;;;5091967;27;20544;-71
2022/08/31 06:04:31;;;;;;;2.40;1.33;;;;;;;;;;5095855;27;20452;-72
2022/08/31 06:06:58;;;;;;;3.47;1.40;;;;;;;;;;5096612;27;20849;-71
2022/08/31 06:09:25;;;;;;;3.83;1.43;;;;;;;;;;5105876;27;20474;-71
2022/08/31 06:11:53;;;;;;;2.43;1.10;;;;;;;;;;5103416;27;20552;-71
2022/08/31 06:14:21;;;;;;;2.10;1.07;;;;;;;;;;5093741;28;20573;-71
2022/08/31 06:16:49;;;;;;;3.77;1.40;;;;;;;;;;5096413;27;20463;-70
2022/08/31 06:19:16;;;;;;;7.73;1.37;;;;;;;;;;5099649;27;20523;-71
2022/08/31 06:21:50;;;;;;;6.73;1.37;;;;;;;;;;5113457;28;20533;-71
2022/08/31 06:24:17;;;;;;;3.60;1.30;;;;;;;;;;5116773;27;20879;-70
2022/08/31 06:26:51;;;;;;;2.80;1.10;;;;;;;;;;5100492;27;20469;-71
2022/08/31 06:29:19;;;;;;;3.17;1.10;;;;;;;;;;5090019;28;20498;-70
2022/08/31 06:31:46;;;;;;;14.80;1.70;;;;;;;;;;5089227;28;20452;-71
2022/08/31 06:34:15;;;;;;;2.17;1.57;;;;;;;;;;5089862;28;20452;-70
2022/08/31 06:36:42;;;;;;;4.07;1.23;;;;;;;;;;5080311;28;20445;-71
2022/08/31 06:39:11;;;;;;;2.57;1.20;;;;;;;;;;5090210;28;20539;-71
2022/08/31 06:41:39;;;;;;;27.17;4.00;;;;;;;;;;5092294;28;20458;-71
2022/08/31 06:44:07;;;;;;;4.33;1.30;;;;;;;;;;5093775;28;20467;-71
2022/08/31 06:46:35;;;;;;;4.00;1.20;;;;;;;;;;5089220;28;20500;-71
2022/08/31 06:49:04;;;;;;;6.07;1.23;;;;;;;;;;5089310;28;20582;-71
2022/08/31 06:51:35;;;;;;;3.23;1.47;;;;;;;;;;5092092;28;20834;-71
2022/08/31 06:54:02;;;;;;;3.90;0.80;;;;;;;;;;5093260;28;20439;-71
2022/08/31 06:56:30;;;;;;;3.60;1.80;;;;;;;;;;5091259;28;20877;-70
2022/08/31 06:59:00;;;;;;;4.17;1.10;;;;;;;;;;5091950;28;20448;-72
2022/08/31 07:01:27;;;;;;;5.90;1.00;;;;;;;;;;5082682;28;20448;-71
2022/08/31 07:03:55;;;;;;;3.43;1.50;;;;;;;;;;5092580;28;20483;-72
2022/08/31 07:06:24;;;;;;;2.87;1.37;;;;;;;;;;5093269;28;20527;-72
2022/08/31 07:08:53;;;;;;;2.63;0.80;;;;;;;;;;5093028;28;20490;-72
2022/08/31 07:11:28;;;;;;;2.47;0.80;;;;;;;;;;5093487;28;20448;-72
2022/08/31 07:13:56;;;;;;;3.70;0.80;;;;;;;;;;5092034;28;20562;-72
2022/08/31 07:16:25;;;;;;;2.23;0.70;;;;;;;;;;5092500;28;20455;-72
2022/08/31 07:18:53;;;;;;;1.70;0.80;;;;;;;;;;5091234;28;20459;-72
2022/08/31 07:21:22;;;;;;;1.67;0.87;;;;;;;;;;5074232;28;20448;-72
2022/08/31 07:23:49;;;;;;;1.77;0.70;;;;;;;;;;5080876;28;20468;-72
2022/08/31 07:26:24;;;;;;;3.43;1.30;;;;;;;;;;5071657;28;20441;-71
2022/08/31 07:28:52;;;;;;;3.67;0.87;;;;;;;;;;5072106;28;20582;-71
2022/08/31 07:31:21;;;;;;;1.63;0.60;;;;;;;;;;5072710;28;20527;-71
2022/08/31 07:33:49;;;;;;;3.37;0.90;;;;;;;;;;5087280;28;20488;-71
2022/08/31 07:36:16;;;;;;;1.50;0.60;;;;;;;;;;5081486;28;20471;-71
2022/08/31 07:44:21;;;;;;;4.33;1.00;;;;;;;;;;5085318;28;20522;-70
2022/08/31 07:46:50;;;;;;;2.00;0.90;;;;;;;;;;5071587;28;21190;-70
2022/08/31 07:49:22;;;;;;;8.20;1.30;;;;;;;;;;5073303;28;20495;-70
2022/08/31 07:51:49;;;;;;;2.87;1.00;;;;;;;;;;5081726;28;20460;-70
2022/08/31 07:54:19;;;;;;;4.30;1.70;;;;;;;;;;5093100;28;20543;-70
2022/08/31 07:56:49;;;;;;;3.37;1.20;;;;;;;;;;5092227;28;20447;-70
2022/08/31 07:59:20;;;;;;;2.90;1.27;;;;;;;;;;5079983;28;20449;-70
2022/08/31 08:01:54;;;;;;;1.77;0.70;;;;;;;;;;5084905;28;21000;-71
2022/08/31 08:04:24;;;;;;;4.13;0.83;;;;;;;;;;5084016;28;20521;-70
2022/08/31 08:06:54;;;;;;;4.10;1.27;;;;;;;;;;5084597;28;20851;-70
2022/08/31 08:09:21;;;;;;;2.20;0.77;;;;;;;;;;5091564;28;20586;-69
2022/08/31 08:11:53;;;;;;;3.60;0.80;;;;;;;;;;5091339;28;20458;-69
2022/08/31 08:14:20;;;;;;;3.53;0.90;;;;;;;;;;5090497;28;20475;-70
2022/08/31 08:16:48;;;;;;;2.80;0.90;;;;;;;;;;5091819;28;20784;-70
2022/08/31 08:19:15;;;;;;;2.70;1.07;;;;;;;;;;5090621;28;20993;-69
2022/08/31 08:21:44;;;;;;;2.77;0.90;;;;;;;;;;5091703;28;20440;-70
2022/08/31 08:24:12;;;;;;;2.20;0.90;;;;;;;;;;5091212;28;20869;-69
2022/08/31 08:26:43;;;;;;;3.70;1.20;;;;;;;;;;5092764;28;20463;-69
2022/08/31 08:29:11;;;;;;;8.93;4.83;;;;;;;;;;5089749;28;20491;-70
2022/08/31 08:31:40;;;;;;;3.00;1.00;;;;;;;;;;5091759;27;20460;-71
2022/08/31 08:34:09;;;;;;;3.10;2.20;;;;;;;;;;5091238;27;20718;-70
2022/08/31 08:36:39;;;;;;;2.03;0.77;;;;;;;;;;5090076;28;20464;-69
2022/08/31 08:39:08;;;;;;;6.47;1.37;;;;;;;;;;5090395;28;20459;-70
2022/08/31 08:41:37;;;;;;;4.10;0.80;;;;;;;;;;5090919;28;20496;-70
2022/08/31 08:44:05;;;;;;;3.23;1.47;;;;;;;;;;5090540;28;20764;-70
2022/08/31 08:46:39;;;;;;;3.43;0.80;;;;;;;;;;5090524;28;20534;-68
2022/08/31 08:49:14;;;;;;;2.70;0.67;;;;;;;;;;5090653;28;20483;-69
2022/08/31 08:51:42;;;;;;;3.97;1.10;;;;;;;;;;5070178;28;20452;-69
2022/08/31 08:54:11;;;;;;;5.33;1.10;;;;;;;;;;5088247;28;20448;-69
2022/08/31 08:56:40;;;;;;;14.37;1.53;;;;;;;;;;5091095;28;20459;-68
2022/08/31 08:59:10;;;;;;;4.07;1.10;;;;;;;;;;5085400;28;20666;-68
2022/08/31 09:01:39;;;;;;;2.40;0.70;;;;;;;;;;5080879;28;20745;-68
2022/08/31 09:04:09;;;;;;;2.80;1.23;;;;;;;;;;5079144;28;20894;-68
2022/08/31 09:06:41;;;;;;;7.47;1.23;;;;;;;;;;5085075;28;20502;-70
2022/08/31 09:09:26;;;;;;;2.07;0.60;;;;;;;;;;5089452;28;20479;-70
2022/08/31 09:12:08;;;;;;;2.73;0.90;;;;;;;;;;5078764;28;20943;-70
2022/08/31 09:14:46;;;;;;;3.10;2.50;;;;;;;;;;5079649;28;20460;-70
2022/08/31 09:17:19;;;;;;;1.57;0.70;;;;;;;;;;5070259;28;20471;-69
2022/08/31 09:20:00;;;;;;;2.57;0.80;;;;;;;;;;5069367;28;20448;-69
2022/08/31 09:22:27;;;;;;;4.80;2.10;;;;;;;;;;5078725;28;21038;-70
2022/08/31 09:24:58;;;;;;;3.80;1.30;;;;;;;;;;5087765;28;20499;-71
2022/08/31 09:27:45;;;;;;;2.40;0.80;;;;;;;;;;5074478;28;20471;-69
2022/08/31 09:30:16;;;;;;;5.10;1.57;;;;;;;;;;5086672;28;20479;-69
2022/08/31 09:32:57;;;;;;;1.50;0.60;;;;;;;;;;5085125;27;20904;-69
2022/08/31 09:35:39;;;;;;;2.73;0.90;;;;;;;;;;5073245;28;20472;-70
2022/08/31 09:38:10;;;;;;;2.90;0.80;;;;;;;;;;5089228;28;20467;-71
2022/08/31 09:40:41;;;;;;;3.67;1.13;;;;;;;;;;5087432;28;20476;-69
2022/08/31 09:43:13;;;;;;;1.90;1.00;;;;;;;;;;5084636;28;20459;-70
2022/08/31 09:45:49;;;;;;;2.20;0.90;;;;;;;;;;5088246;28;20499;-70
2022/08/31 09:48:38;;;;;;;4.33;1.00;;;;;;;;;;5071921;28;20512;-70
2022/08/31 09:51:05;;;;;;;3.60;2.00;;;;;;;;;;5082847;28;20511;-69
2022/08/31 09:56:28;;;;;;;4.33;1.00;;;;;;;;;;5090656;28;20470;-70
2022/08/31 09:59:00;;;;;;;3.90;1.20;;;;;;;;;;5089450;28;20464;-70
2022/08/31 10:01:31;;;;;;;7.43;1.20;;;;;;;;;;5086292;28;20468;-70
2022/08/31 10:04:20;;;;;;;2.87;0.80;;;;;;;;;;5085752;28;20519;-70
2022/08/31 10:06:51;;;;;;;2.97;0.83;;;;;;;;;;5090908;28;20467;-70
2022/08/31 10:09:22;;;;;;;3.67;0.97;;;;;;;;;;5092924;28;20587;-69
2022/08/31 10:11:51;;;;;;;3.67;0.80;;;;;;;;;;5091596;28;20494;-70
2022/08/31 10:14:24;;;;;;;3.90;1.00;;;;;;;;;;5080861;28;20459;-71
2022/08/31 10:16:54;;;;;;;3.00;1.00;;;;;;;;;;5090833;28;20761;-71
2022/08/31 10:19:33;;;;;;;4.93;1.40;;;;;;;;;;5087860;28;20494;-70
2022/08/31 10:22:04;;;;;;;4.00;0.70;;;;;;;;;;5083342;28;20531;-70
2022/08/31 10:24:45;;;;;;;3.20;1.17;;;;;;;;;;5084436;28;20472;-70
2022/08/31 10:27:21;;;;;;;4.00;0.90;;;;;;;;;;5091256;28;20528;-71
2022/08/31 10:30:00;;;;;;;3.97;1.30;;;;;;;;;;5085684;28;20555;-71
2022/08/31 10:35:28;;;;;;;3.90;1.13;;;;;;;;;;5089756;28;20494;-70
2022/08/31 10:37:58;;;;;;;5.00;1.53;;;;;;;;;;5084797;28;20470;-70
2022/08/31 10:40:30;;;;;;;3.50;0.80;;;;;;;;;;5090860;28;20534;-70
2022/08/31 10:43:15;;;;;;;4.40;0.60;;;;;;;;;;5089384;28;20823;-70
2022/08/31 10:45:50;;;;;;;4.80;0.90;;;;;;;;;;5088057;28;20459;-71
2022/08/31 10:48:18;;;;;;;3.90;0.80;;;;;;;;;;5090507;28;20605;-71
2022/08/31 10:50:51;;;;;;;4.13;0.90;;;;;;;;;;5089840;28;20532;-70
2022/08/31 10:53:25;;;;;;;6.20;0.83;;;;;;;;;;5090287;28;20478;-71
2022/08/31 10:55:56;;;;;;;6.00;0.97;;;;;;;;;;5087084;28;20444;-70
2022/08/31 10:58:27;;;;;;;5.13;1.20;;;;;;;;;;5072447;28;20460;-72
2022/08/31 11:00:56;;;;;;;4.30;0.87;;;;;;;;;;5078931;28;20536;-72
2022/08/31 11:03:38;;;;;;;2.80;0.60;;;;;;;;;;5090680;28;20473;-72
2022/08/31 11:06:12;;;;;;;6.70;1.20;;;;;;;;;;5070494;28;20429;-72
2022/08/31 11:08:48;;;;;;;3.77;0.90;;;;;;;;;;5086546;28;20498;-72
2022/08/31 11:11:25;;;;;;;3.67;0.97;;;;;;;;;;5091238;28;20457;-72
2022/08/31 11:14:03;;;;;;;3.57;0.70;;;;;;;;;;5090428;28;20483;-70
2022/08/31 11:16:35;;;;;;;3.73;0.77;;;;;;;;;;5090057;28;20491;-70
2022/08/31 11:19:11;;;;;;;3.70;1.33;;;;;;;;;;5089435;28;20479;-73
2022/08/31 11:21:49;;;;;;;6.30;0.70;;;;;;;;;;5075176;28;20455;-73
2022/08/31 11:24:38;;;;;;;4.20;0.80;;;;;;;;;;5068943;28;20969;-72
2022/08/31 11:27:13;;;;;;;3.70;0.87;;;;;;;;;;5088277;28;20459;-72
2022/08/31 11:29:45;;;;;;;3.23;0.90;;;;;;;;;;5089555;28;20531;-72
2022/08/31 11:32:18;;;;;;;3.30;0.70;;;;;;;;;;5092516;28;20462;-73
2022/08/31 11:34:49;;;;;;;4.00;1.37;;;;;;;;;;5092474;28;20459;-73
2022/08/31 11:37:35;;;;;;;4.93;0.97;;;;;;;;;;5092623;28;20761;-72
2022/08/31 11:40:11;;;;;;;11.30;2.77;;;;;;;;;;5086429;28;20464;-73
2022/08/31 11:42:56;;;;;;;5.73;1.30;;;;;;;;;;5083627;28;20765;-73
2022/08/31 11:45:28;;;;;;;3.30;0.90;;;;;;;;;;5085043;28;20976;-73
2022/08/31 11:47:56;;;;;;;6.67;2.50;;;;;;;;;;5082261;28;20526;-72
2022/08/31 11:50:55;;;;;;;3.20;0.70;;;;;;;;;;5078572;28;20761;-73
2022/08/31 11:53:31;;;;;;;3.23;0.87;;;;;;;;;;5080481;28;20442;-72
2022/08/31 11:56:02;;;;;;;3.90;1.00;;;;;;;;;;5083279;28;20467;-73
2022/08/31 11:58:33;;;;;;;3.70;0.80;;;;;;;;;;5070550;28;20507;-73
2022/08/31 12:01:45;;;;;;;;;;;;;;;;;;;;;
2022/08/31 12:04:29;;;;;;;6.40;1.37;;;;;;;;;;5089146;28;20455;-71
2022/08/31 12:07:02;;;;;;;4.20;1.57;;;;;;;;;;5076683;28;20451;-72
2022/08/31 12:09:50;;;;;;;3.60;0.70;;;;;;;;;;5091442;28;20566;-71
2022/08/31 12:12:26;;;;;;;4.83;1.87;;;;;;;;;;5070691;28;20444;-71
2022/08/31 12:14:57;;;;;;;5.50;1.07;;;;;;;;;;5070890;28;20862;-72
2022/08/31 12:17:30;;;;;;;3.70;1.00;;;;;;;;;;5070074;28;20459;-72
2022/08/31 12:20:06;;;;;;;4.20;1.07;;;;;;;;;;5083644;28;21055;-72
2022/08/31 12:25:41;;;;;;;6.80;1.90;;;;;;;;;;5076686;28;20515;-72
2022/08/31 12:28:16;;;;;;;3.33;0.63;;;;;;;;;;5088766;28;20482;-73
2022/08/31 12:30:58;;;;;;;3.60;1.20;;;;;;;;;;5091446;28;20474;-72
2022/08/31 12:33:27;;;;;;;9.37;1.80;;;;;;;;;;5078180;28;20460;-73
2022/08/31 12:35:58;;;;;;;5.03;1.67;;;;;;;;;;5084701;28;20467;-73
2022/08/31 12:38:29;;;;;;;5.50;0.90;;;;;;;;;;5087224;28;21136;-73
2022/08/31 12:40:57;;;;;;;5.03;1.67;;;;;;;;;;5081369;28;20487;-73
2022/08/31 12:43:30;;;;;;;4.07;0.83;;;;;;;;;;5079077;28;20496;-72
2022/08/31 12:46:19;;;;;;;3.57;0.97;;;;;;;;;;5084059;28;20464;-72
2022/08/31 12:49:03;;;;;;;40.50;5.03;;;;;;;;;;5053232;28;20494;-72
2022/08/31 12:51:39;;;;;;;5.17;1.00;;;;;;;;;;5090660;28;20915;-72
2022/08/31 12:54:16;;;;;;;10.27;1.27;;;;;;;;;;5088921;28;20550;-72
2022/08/31 12:56:49;;;;;;;7.37;1.30;;;;;;;;;;5085181;28;20482;-73
2022/08/31 12:59:26;;;;;;;5.00;1.20;;;;;;;;;;5088104;28;20467;-73
2022/08/31 13:01:53;;;;;;;88.87;13.70;;;;;;;;;;5086818;28;21092;-73
2022/08/31 13:04:30;;;;;;;5.13;1.80;;;;;;;;;;5084208;28;20467;-72
2022/08/31 13:07:14;;;;;;;3.33;0.93;;;;;;;;;;5086780;28;20466;-72
2022/08/31 13:09:42;;;;;;;7.47;1.00;;;;;;;;;;5070094;28;20492;-72
2022/08/31 13:12:11;;;;;;;5.60;1.50;;;;;;;;;;5089033;28;20486;-72
2022/08/31 13:14:44;;;;;;;6.43;1.50;;;;;;;;;;5090370;27;20455;-72
2022/08/31 13:17:14;;;;;;;4.13;1.10;;;;;;;;;;5090881;27;20486;-73
2022/08/31 13:19:46;;;;;;;3.17;0.87;;;;;;;;;;5085088;28;20475;-70
2022/08/31 13:22:25;;;;;;;4.43;1.60;;;;;;;;;;5075269;28;21122;-72
2022/08/31 13:24:52;;;;;;;4.83;1.37;;;;;;;;;;5078415;28;20882;-73
2022/08/31 13:27:24;;;;;;;20.10;1.73;;;;;;;;;;5083695;28;21123;-72
2022/08/31 13:30:24;;;;;;;3.47;0.90;;;;;;;;;;5083083;28;20563;-72
2022/08/31 13:32:53;;;;;;;3.53;0.80;;;;;;;;;;5087527;27;20781;-72
2022/08/31 13:35:23;;;;;;;2.97;0.83;;;;;;;;;;5090474;28;20463;-72
2022/08/31 13:38:03;;;;;;;9.40;5.10;;;;;;;;;;5080537;28;20468;-73
2022/08/31 13:40:34;;;;;;;5.33;2.07;;;;;;;;;;5095940;27;20470;-73
2022/08/31 13:43:02;;;;;;;5.40;2.87;;;;;;;;;;5093177;28;20451;-72
2022/08/31 13:45:35;;;;;;;6.97;3.60;;;;;;;;;;5091291;28;20459;-72
2022/08/31 13:48:09;;;;;;;3.90;1.30;;;;;;;;;;5088703;28;20479;-72
2022/08/31 13:50:49;;;;;;;5.30;1.53;;;;;;;;;;5072146;28;20505;-72
2022/08/31 13:53:35;;;;;;;4.40;1.60;;;;;;;;;;5086918;28;20443;-72
2022/08/31 13:56:53;;;;;;;9.20;3.33;;;;;;;;;;5091193;28;20467;-71
2022/08/31 13:59:23;;;;;;;3.97;1.07;;;;;;;;;;5088501;27;20428;-73
2022/08/31 14:01:53;;;;;;;7.70;3.60;;;;;;;;;;5079536;28;20468;-70
2022/08/31 14:04:48;;;;;;;3.23;0.93;;;;;;;;;;5091496;28;21121;-72
2022/08/31 14:07:20;;;;;;;3.00;0.80;;;;;;;;;;5091080;28;20447;-72
2022/08/31 14:09:53;;;;;;;4.33;1.43;;;;;;;;;;5087469;28;20586;-71
2022/08/31 14:12:33;;;;;;;3.80;0.97;;;;;;;;;;5088820;28;20520;-71
2022/08/31 14:15:19;;;;;;;4.50;2.23;;;;;;;;;;5084872;28;20511;-71
2022/08/31 14:17:51;;;;;;;6.30;1.97;;;;;;;;;;5082488;28;21065;-71
2022/08/31 14:20:34;;;;;;;5.27;1.50;;;;;;;;;;5091244;28;20881;-71
2022/08/31 14:23:20;;;;;;;4.17;1.93;;;;;;;;;;5089083;28;20520;-71
2022/08/31 14:25:48;;;;;;;3.80;1.03;;;;;;;;;;5086154;28;20485;-72
2022/08/31 14:28:15;;;;;;;3.50;1.03;;;;;;;;;;5088091;28;20608;-72
2022/08/31 14:30:52;;;;;;;40.50;27.90;;;;;;;;;;5090205;28;20474;-72
2022/08/31 14:33:22;;;;;;;3.60;0.93;;;;;;;;;;5073086;28;20464;-72
2022/08/31 14:35:54;;;;;;;3.33;0.93;;;;;;;;;;5078851;28;20468;-72
2022/08/31 14:38:23;;;;;;;3.70;0.97;;;;;;;;;;5078663;28;20484;-72
2022/08/31 14:40:59;;;;;;;2.90;0.90;;;;;;;;;;5089043;28;20473;-72
2022/08/31 14:43:26;;;;;;;8.30;3.10;;;;;;;;;;5089307;28;20491;-71
2022/08/31 14:45:54;;;;;;;2.60;0.70;;;;;;;;;;5087655;28;20471;-71
2022/08/31 14:48:25;;;;;;;3.67;0.80;;;;;;;;;;5088254;28;20483;-72
2022/08/31 14:50:56;;;;;;;6.90;1.50;;;;;;;;;;5088707;28;20908;-72
2022/08/31 14:53:24;;;;;;;2.83;1.00;;;;;;;;;;5083346;28;20460;-71
2022/08/31 14:55:51;;;;;;;4.40;1.60;;;;;;;;;;5087056;28;20463;-73
2022/08/31 14:58:22;;;;;;;7.83;2.63;;;;;;;;;;5089139;28;20487;-73
2022/08/31 15:01:02;;;;;;;3.03;0.93;;;;;;;;;;5089241;28;20487;-73
2022/08/31 15:03:46;;;;;;;3.50;0.90;;;;;;;;;;5083230;28;20503;-73
2022/08/31 15:06:13;;;;;;;3.07;1.00;;;;;;;;;;5087843;28;20545;-73
2022/08/31 15:08:43;;;;;;;3.00;1.00;;;;;;;;;;5082901;28;20483;-73
2022/08/31 15:11:17;;;;;;;5.33;0.93;;;;;;;;;;5091183;28;20459;-73
2022/08/31 15:13:48;;;;;;;3.93;1.60;;;;;;;;;;5087956;28;20479;-73
2022/08/31 15:16:18;;;;;;;3.50;1.00;;;;;;;;;;5079789;28;20916;-72
2022/08/31 15:18:53;;;;;;;4.93;1.00;;;;;;;;;;5088509;28;20472;-72
2022/08/31 15:21:22;;;;;;;3.30;1.10;;;;;;;;;;5088808;28;20550;-72
2022/08/31 15:24:15;;;;;;;3.20;1.20;;;;;;;;;;5082090;28;20465;-72